METAR Data
IDs: Format: Raw Decoded Include TAF

Data at: 0449 UTC 18 Oct 2018

METAR for:KLOU (Louisville/Bowman Fl, KY, US)
Text:KLOU 180353Z AUTO 36005KT 10SM CLR 10/02 A3044 RMK AO2 SLP309 T01000022
Temperature: 10.0°C ( 50°F)
Dewpoint: 2.2°C ( 36°F) [RH = 58%]
Pressure (altimeter):30.44 inches Hg (1030.9 mb) [Sea level pressure: 1030.9 mb]
Winds:from the N (360 degrees) at 6 MPH (5 knots; 2.6 m/s)
Visibility:10 or more sm (16+ km)
Ceiling:at least 12,000 feet AGL
Clouds:sky clear below 12,000 feet AGL
QC Flag:automated observation with no human augmentation